N627AA KSGF-KCOU
Flight info
| Callsign | N627AA |
|---|---|
| Flight time | N/A |
| Altitude | 17000 |
| Route | SGF V63 MIZZU |
| Aircraft | SF50/M-BGS/L |
Departure
| Time | 2026-05-05 18:04 |
|---|---|
| Airport | Springfield Branson National Airport (KSGF) |
Arrival
| Time | N/A |
|---|---|
| Airport | Columbia Regional Airport (KCOU) |
| Time | Latitude | Longitude | Altitude | Speed | Heading |
|---|---|---|---|---|---|
| 2026-05-05 17:46 | 37.24977 | -93.37928 | 1263 ft | 0 kts | 284° |
| 2026-05-05 18:00 | 37.24980 | -93.37935 | 1263 ft | 6 kts | 296° |
| 2026-05-05 18:00 | 37.24960 | -93.37959 | 1263 ft | 2 kts | 211° |
| 2026-05-05 18:00 | 37.24935 | -93.38037 | 1264 ft | 13 kts | 286° |
| 2026-05-05 18:00 | 37.24880 | -93.38095 | 1264 ft | 13 kts | 194° |
| 2026-05-05 18:01 | 37.24785 | -93.38134 | 1264 ft | 15 kts | 200° |
| 2026-05-05 18:01 | 37.24670 | -93.38191 | 1264 ft | 21 kts | 202° |
| 2026-05-05 18:01 | 37.24517 | -93.38269 | 1264 ft | 27 kts | 202° |
| 2026-05-05 18:01 | 37.24334 | -93.38379 | 1264 ft | 29 kts | 206° |
| 2026-05-05 18:02 | 37.24164 | -93.38477 | 1264 ft | 25 kts | 201° |
| 2026-05-05 18:02 | 37.24019 | -93.38550 | 1265 ft | 20 kts | 202° |
| 2026-05-05 18:02 | 37.23893 | -93.38613 | 1264 ft | 20 kts | 201° |
| 2026-05-05 18:02 | 37.23759 | -93.38680 | 1265 ft | 21 kts | 201° |
| 2026-05-05 18:03 | 37.23617 | -93.38752 | 1265 ft | 22 kts | 201° |
| 2026-05-05 18:03 | 37.23567 | -93.38871 | 1265 ft | 17 kts | 309° |
| 2026-05-05 18:03 | 37.23675 | -93.38867 | 1265 ft | 32 kts | 21° |
| 2026-05-05 18:03 | 37.24117 | -93.38653 | 1383 ft | 92 kts | 22° |
| 2026-05-05 18:04 | 37.24794 | -93.38381 | 1699 ft | 117 kts | 21° |
| 2026-05-05 18:04 | 37.25659 | -93.38036 | 2197 ft | 137 kts | 19° |
| 2026-05-05 18:04 | 37.26606 | -93.37668 | 2701 ft | 153 kts | 21° |
| 2026-05-05 18:04 | 37.27695 | -93.37259 | 3137 ft | 172 kts | 19° |
| 2026-05-05 18:05 | 37.28875 | -93.36856 | 3695 ft | 177 kts | 18° |
| 2026-05-05 18:05 | 37.30063 | -93.36503 | 4409 ft | 173 kts | 15° |